CONTEST STATUS - Updated: SAT ... 14-APR-18 @ 9 PM EDT

Winter '17 / '18 - Snowfall Forecast Contests

19th Annual 'Regular Season' Snowfall Forecast Contest
- FINAL Results here
1st Place: Brad Yehl
2nd Place: Don Sutherland
3rd Place: NWS ER WFOs
HM: Herb @MAWS

17th Annual 'Season-total' Snowfall Forecast Contest
- FINAL Results here
1st Place: Don Sutherland
2nd Place: Mitchel Volk
3rd Place: Brad Yehl
HM: TQ
Climo: 5th place

----------------------------------------------------
Winter '16 / '17 - Snowfall Forecast Contests
----------------------------------------------------
18th Annual 'Regular Season'
FINAL results here

---
16th Annual 'Season-total'
FINAL results here

Wednesday, February 13, 2008

RDU - Winter '08



SPECI KRDU 140356Z 32009G15KT 290V350 6SM -SN BR FEW007 BKN014 OVC028 02/00 A2980 RMK AO2 RAE55SNB55 P0000

SPECI KRDU 140446Z VRB06KT 3SM -PLSN BR OVC007 01/M01 A2982 RMK AO2 RAE0355SNB0355PLB18 P0002

METAR KRDU 140451Z VRB05KT 3SM -PLSN BR OVC007 01/00 A2983 RMK AO2 SLP100 RAE0355SNB0355PLB18 P0002

No comments: